Austin, Texas
Traffic Map
Current Weather Conditions
Austin, Texas
Clear
Clear
26°
Feels Like: 28°
Wind Chill: 26° Ceiling: Unl
Heat Index: 28° Visibility: 10mi
Dew Point: 21° Wind: 7mph
Humidity: 74% Direction: ° ()
Pressure: 29.81in Gusts: 0mph
Raw Report DataKATT 010351Z AUTO VRB06KT 10SM CLR 26/21 A2981 RMK AO2 SLP082 T02610211
Traffic Incident Summary
Active as of:
Severity:
Category:
InformationThere was an issue retrieving the traffic information for this location. Please try a different location or try again shortly.
Advertisements
Track Severe Weather on mobile